Arjay, Kentucky
Current Conditions -  °F | °C
As of 1:35 PM on Thursday 23 Oct 2014 (Local Time) from K1A6 Reporting Station
Clear Clear  
Wind Chill: 58°   Ceiling: Unl
Heat Index: 58°   Visibility: 10mi
Dew Point: 40°   Wind: 0mph
Humidity: 51%   Direction: NA
Pressure: 30.17"   Gusts: NA
Location:  36.8°N, 83.65°W
Report Text: K1A6 231735Z AUTO 00000KT 10SM CLR 14/04 A3017 RMK AO2 T01440044
Loading
Personal Weather Stations






























Interactive Weather Map
Tropical Storm Tracking
New forecast layout! Learn more

10-Day Weather Forecast

Advertisements
Track Severe Weather on mobile